Airport View

Enter AWOS ICAO identifier for current METAR.

ex. KFNL

KRDR 112156Z AUTO 15005KT 10SM CLR M19/M25 A3032 RMK AO2 SLP303 T11951246

11 Dec 2019 22:48

Other Area AWOS: KGFK - KGAF - KCKN - KS32

TAF AMD KRDR 111805Z 1118/1224 23012KT 9999 SCT200 QNH3027INS BECMG 1202/1203 VRB06KT 9999 BKN080 620804 QNH3017INS BECMG 1204/1205 15009KT 4800 -SN OVC015 620159 QNH3008INS BECMG 1209/1210 15009KT 9999 NSW OVC015 620155 QNH3000INS TXM16/1217Z TNM20/1118Z